Time;durP1;ratioP1;P1;durP2;ratioP2;P2;SDS_P1;SDS_P2;PMS_P1;PMS_P2;Temp;Humidity;BMP_temperature;BMP_pressure;BME280_temperature;BME280_humidity;BME280_pressure;Samples;Min_cycle;Max_cycle;Signal;HPM_P1;HPM_P2
2024/01/13 00:00:03;;;;;;;32.63;17.42;;;;;;;-3.34;88.98;99177.84;4991851;28;20199;-76
2024/01/13 00:02:29;;;;;;;38.15;17.25;;;;;;;-3.59;89.75;99179.25;4991146;28;20294;-76
2024/01/13 00:04:56;;;;;;;33.47;19.00;;;;;;;-3.51;89.57;99176.16;4999002;28;20203;-75
2024/01/13 00:07:24;;;;;;;32.45;17.90;;;;;;;-3.52;89.75;99170.00;4988913;28;20242;-76
2024/01/13 00:09:50;;;;;;;30.80;16.48;;;;;;;-3.49;90.01;99175.13;4989668;28;20203;-76
2024/01/13 00:12:17;;;;;;;28.27;16.35;;;;;;;-3.51;89.22;99158.47;4990371;28;20279;-76
2024/01/13 00:14:44;;;;;;;33.05;16.65;;;;;;;-3.66;89.37;99158.50;4991020;28;20597;-76
2024/01/13 00:17:11;;;;;;;27.63;15.80;;;;;;;-3.38;88.93;99162.16;4989217;28;20263;-76
2024/01/13 00:19:37;;;;;;;24.23;14.50;;;;;;;-3.33;88.83;99166.34;4973498;28;20203;-76
2024/01/13 00:22:04;;;;;;;26.70;14.60;;;;;;;-3.17;87.67;99154.75;4999121;28;20572;-76
2024/01/13 00:24:32;;;;;;;24.48;14.23;;;;;;;-3.17;86.81;99153.91;5006317;28;20265;-76
2024/01/13 00:26:59;;;;;;;23.25;13.90;;;;;;;-3.18;87.27;99146.91;4988776;28;20205;-76
2024/01/13 00:29:26;;;;;;;23.23;13.13;;;;;;;-3.09;86.57;99149.03;4991503;28;20204;-75
2024/01/13 00:31:52;;;;;;;21.92;13.18;;;;;;;-3.18;86.27;99152.19;4956985;28;20545;-76
2024/01/13 00:34:19;;;;;;;23.20;13.35;;;;;;;-3.21;87.09;99147.09;4990969;28;20207;-76
2024/01/13 00:36:46;;;;;;;25.92;13.77;;;;;;;-3.21;86.78;99149.72;4989038;28;20215;-76
2024/01/13 00:39:12;;;;;;;24.88;15.15;;;;;;;-3.17;87.04;99143.31;4991544;28;20580;-76
2024/01/13 00:41:40;;;;;;;28.73;16.13;;;;;;;-3.43;88.09;99126.31;4989633;28;20649;-75
2024/01/13 00:44:07;;;;;;;29.90;16.45;;;;;;;-3.57;88.15;99135.00;4989084;28;20224;-76
2024/01/13 00:46:33;;;;;;;27.90;13.68;;;;;;;-3.78;89.68;99130.94;4989380;28;20199;-75
2024/01/13 00:49:00;;;;;;;34.15;16.33;;;;;;;-3.70;88.97;99123.44;4990759;28;20309;-76
2024/01/13 00:51:26;;;;;;;30.98;17.02;;;;;;;-4.06;90.13;99099.91;4988436;28;20254;-76
2024/01/13 00:53:53;;;;;;;37.38;17.90;;;;;;;-3.89;90.45;99134.19;4994175;28;20214;-75
2024/01/13 00:56:19;;;;;;;28.38;15.77;;;;;;;-3.85;90.12;99130.44;4993985;28;20672;-75
2024/01/13 00:58:47;;;;;;;30.45;16.40;;;;;;;-3.92;90.03;99128.25;5003163;28;20199;-75
2024/01/13 01:01:14;;;;;;;31.20;17.75;;;;;;;-3.89;90.12;99134.19;4992933;28;20553;-75
2024/01/13 01:03:41;;;;;;;28.10;16.92;;;;;;;-3.83;90.35;99127.69;5025983;28;20213;-75
2024/01/13 01:06:07;;;;;;;35.45;18.50;;;;;;;-3.49;89.54;99127.50;5002098;28;20207;-76
2024/01/13 01:08:34;;;;;;;31.38;17.13;;;;;;;-3.50;89.60;99120.50;4994552;28;20215;-75
2024/01/13 01:11:00;;;;;;;28.67;16.55;;;;;;;-3.26;88.89;99120.06;4993677;28;20211;-76
2024/01/13 01:13:27;;;;;;;32.72;17.80;;;;;;;-3.20;88.58;99119.66;4993856;28;20290;-76
2024/01/13 01:15:55;;;;;;;31.15;17.75;;;;;;;-3.16;87.81;99121.19;4993005;28;20205;-75
2024/01/13 01:18:22;;;;;;;27.77;14.57;;;;;;;-3.26;88.26;99114.75;5009352;28;20294;-76
2024/01/13 01:20:50;;;;;;;30.30;17.73;;;;;;;-3.02;87.40;99120.41;4991735;28;20314;-75
2024/01/13 01:23:16;;;;;;;35.88;17.77;;;;;;;-3.11;87.66;99120.00;5002157;28;20285;-76
2024/01/13 01:25:43;;;;;;;32.30;17.92;;;;;;;-2.97;87.10;99118.34;4993976;28;20211;-75
2024/01/13 01:28:09;;;;;;;32.15;18.05;;;;;;;-2.95;87.21;99114.66;4993910;28;20234;-75
2024/01/13 01:30:37;;;;;;;36.55;19.20;;;;;;;-3.12;87.43;99110.34;4992235;28;20210;-74
2024/01/13 01:33:05;;;;;;;35.80;18.45;;;;;;;-3.15;87.96;99109.66;4994869;28;20203;-76
2024/01/13 01:35:31;;;;;;;37.28;20.02;;;;;;;-3.34;88.46;99104.63;4993845;28;20576;-75
2024/01/13 01:37:58;;;;;;;42.28;19.45;;;;;;;-3.54;88.77;99103.09;4995032;28;20261;-74
2024/01/13 01:40:26;;;;;;;34.88;18.45;;;;;;;-3.39;88.34;99102.22;4994032;28;20609;-76
2024/01/13 01:42:53;;;;;;;35.42;20.20;;;;;;;-3.23;88.13;99102.16;4995414;28;20238;-76
2024/01/13 01:45:19;;;;;;;37.58;20.40;;;;;;;-3.06;87.90;99096.75;4993459;28;20215;-76
2024/01/13 01:47:46;;;;;;;34.60;19.55;;;;;;;-3.20;87.55;99095.84;4993723;28;20215;-76
2024/01/13 01:50:15;;;;;;;35.80;19.13;;;;;;;-3.12;87.99;99098.91;5025904;28;20198;-75
2024/01/13 01:52:41;;;;;;;34.88;18.85;;;;;;;-3.07;87.23;99100.34;4991812;28;20262;-75
2024/01/13 01:55:08;;;;;;;31.70;19.13;;;;;;;-3.23;87.68;99093.38;4993653;28;20538;-76
2024/01/13 01:57:38;;;;;;;35.42;19.05;;;;;;;-3.19;87.98;99086.97;4991639;28;20231;-76
2024/01/13 02:00:07;;;;;;;34.00;18.88;;;;;;;-2.97;87.58;99092.72;4992973;28;20276;-76
2024/01/13 02:02:34;;;;;;;30.55;18.42;;;;;;;-3.16;87.41;99086.78;5001085;28;20760;-76
2024/01/13 02:05:02;;;;;;;33.95;18.52;;;;;;;-3.34;88.20;99082.59;4993410;28;20295;-76
2024/01/13 02:07:32;;;;;;;42.95;19.88;;;;;;;-3.45;88.43;99081.41;5001345;28;20207;-76
2024/01/13 02:09:59;;;;;;;45.05;21.60;;;;;;;-3.62;88.45;99081.56;4993084;28;20223;-76
2024/01/13 02:12:25;;;;;;;36.97;19.15;;;;;;;-3.45;88.96;99081.41;4991856;28;20310;-75
2024/01/13 02:14:54;;;;;;;42.03;19.92;;;;;;;-3.62;88.52;99075.41;4991131;28;20270;-76
2024/01/13 02:17:20;;;;;;;37.58;19.90;;;;;;;-3.66;89.51;99074.72;5003096;28;20727;-76
2024/01/13 02:19:47;;;;;;;37.47;19.67;;;;;;;-3.58;89.38;99072.50;4989328;28;20225;-75
2024/01/13 02:22:16;;;;;;;43.55;22.48;;;;;;;-3.57;89.09;99071.53;4993412;28;20203;-76
2024/01/13 02:24:43;;;;;;;44.38;20.95;;;;;;;-3.91;90.19;99072.63;4992380;28;20301;-76
2024/01/13 02:27:09;;;;;;;42.75;20.70;;;;;;;-3.87;90.48;99074.13;4991965;28;20214;-76
2024/01/13 02:29:37;;;;;;;38.47;19.13;;;;;;;-3.65;89.94;99068.50;4993611;28;20708;-76
2024/01/13 02:32:04;;;;;;;41.08;20.38;;;;;;;-3.48;88.71;99065.72;4999416;28;20210;-76
2024/01/13 02:34:31;;;;;;;36.92;19.20;;;;;;;-3.55;89.04;99063.50;4988555;28;20207;-76
2024/01/13 02:36:57;;;;;;;38.45;19.55;;;;;;;-3.43;89.35;99057.50;4991879;28;20286;-75
2024/01/13 02:39:26;;;;;;;30.00;17.55;;;;;;;-3.40;88.51;99060.00;4992522;28;20657;-76
2024/01/13 02:41:54;;;;;;;32.75;18.17;;;;;;;-3.26;87.88;99053.91;4991814;28;20199;-76
2024/01/13 02:44:20;;;;;;;31.13;17.63;;;;;;;-3.30;88.12;99040.00;4984658;28;20289;-78
2024/01/13 02:46:47;;;;;;;35.78;18.00;;;;;;;-3.49;87.92;99061.38;4991395;28;20210;-77
2024/01/13 02:49:13;;;;;;;32.78;15.68;;;;;;;-3.52;88.10;99053.59;4991124;28;20226;-75
2024/01/13 02:51:40;;;;;;;36.20;17.60;;;;;;;-3.67;88.55;99046.56;4985261;28;20213;-75
2024/01/13 02:54:06;;;;;;;32.70;17.95;;;;;;;-3.58;88.69;99042.56;4987635;28;20286;-76
2024/01/13 02:56:34;;;;;;;34.42;18.52;;;;;;;-3.33;87.61;99041.97;4991825;28;20213;-76
2024/01/13 02:59:01;;;;;;;30.65;17.63;;;;;;;-3.41;87.33;99035.31;4991312;28;20211;-76
2024/01/13 03:01:29;;;;;;;32.17;18.42;;;;;;;-3.11;86.80;99026.50;4993137;28;20704;-76
2024/01/13 03:03:56;;;;;;;35.67;18.48;;;;;;;-3.11;87.05;99019.41;4992740;28;20196;-76
2024/01/13 03:06:23;;;;;;;41.90;19.95;;;;;;;-3.09;86.66;99025.47;4983803;28;20298;-76
2024/01/13 03:08:50;;;;;;;33.33;17.80;;;;;;;-3.19;86.77;99021.66;4990484;28;20223;-76
2024/01/13 03:11:17;;;;;;;39.70;21.10;;;;;;;-3.39;87.18;99017.56;4990720;28;20222;-76
2024/01/13 03:13:45;;;;;;;35.67;18.58;;;;;;;-3.17;87.68;99017.13;5005955;28;20207;-76
2024/01/13 03:16:12;;;;;;;41.60;21.55;;;;;;;-3.01;86.62;99011.75;4991452;28;20225;-76
2024/01/13 03:18:39;;;;;;;34.85;17.67;;;;;;;-3.26;87.09;99022.13;4990772;28;20696;-76
2024/01/13 03:21:06;;;;;;;40.72;21.60;;;;;;;-3.27;86.94;99012.50;5007181;28;20665;-76
2024/01/13 03:23:33;;;;;;;37.28;19.25;;;;;;;-3.43;87.13;99013.38;4983598;28;20212;-77
2024/01/13 03:25:59;;;;;;;36.42;21.48;;;;;;;-3.75;88.71;99017.06;4992872;28;20210;-75
2024/01/13 03:28:26;;;;;;;35.53;18.23;;;;;;;-3.73;88.93;99020.47;4989951;28;20233;-75
2024/01/13 03:30:54;;;;;;;36.83;18.38;;;;;;;-3.76;89.35;99018.88;4990048;28;20217;-76
2024/01/13 03:33:21;;;;;;;38.90;20.42;;;;;;;-4.02;90.15;99029.22;4990401;28;20294;-75
2024/01/13 03:35:47;;;;;;;34.88;19.67;;;;;;;-3.80;90.35;99024.41;4990989;28;20219;-75
2024/01/13 03:38:14;;;;;;;35.40;18.77;;;;;;;-3.56;89.25;99027.41;4993437;28;20239;-76
2024/01/13 03:40:40;;;;;;;35.50;18.48;;;;;;;-3.53;88.38;99021.94;5022376;28;20563;-76
2024/01/13 03:43:08;;;;;;;34.47;17.75;;;;;;;-3.63;88.05;99024.31;4994159;28;20207;-75
2024/01/13 03:45:35;;;;;;;32.55;17.65;;;;;;;-3.39;87.46;99022.00;4992865;28;20295;-75
2024/01/13 03:48:03;;;;;;;36.65;19.60;;;;;;;-3.24;86.94;99023.72;4990190;28;20214;-75
2024/01/13 03:50:30;;;;;;;36.67;17.83;;;;;;;-3.11;86.63;99000.03;4990716;28;20234;-75
2024/01/13 03:52:58;;;;;;;39.50;19.75;;;;;;;-3.44;87.29;99008.19;4990085;28;20580;-75
2024/01/13 03:55:24;;;;;;;35.55;21.65;;;;;;;-3.31;86.63;99009.19;4984624;28;20215;-74
2024/01/13 03:57:51;;;;;;;40.40;19.75;;;;;;;-3.18;86.17;99001.34;4999733;28;20663;-75
2024/01/13 04:00:19;;;;;;;40.47;19.67;;;;;;;-3.46;86.89;98995.06;5023419;28;20222;-75
2024/01/13 04:02:45;;;;;;;32.17;17.50;;;;;;;-3.60;88.01;98992.38;4988784;28;20209;-75
2024/01/13 04:05:14;;;;;;;41.65;22.27;;;;;;;-3.75;88.45;98987.97;4992179;28;20294;-75
2024/01/13 04:07:41;;;;;;;41.88;19.88;;;;;;;-3.75;88.78;98993.28;4991904;28;20286;-75
2024/01/13 04:10:09;;;;;;;36.42;18.98;;;;;;;-3.76;89.42;98986.28;4990938;28;20222;-75
2024/01/13 04:12:35;;;;;;;37.67;19.60;;;;;;;-3.57;88.88;98981.59;4981217;28;20209;-75
2024/01/13 04:15:02;;;;;;;41.65;20.02;;;;;;;-3.61;88.59;98979.25;4991717;28;20231;-75
2024/01/13 04:17:29;;;;;;;40.33;19.73;;;;;;;-3.64;88.45;98964.41;4988690;28;20719;-75
2024/01/13 04:19:55;;;;;;;30.67;18.45;;;;;;;-3.82;88.52;98970.78;4988470;28;20286;-75
2024/01/13 04:22:23;;;;;;;32.58;18.98;;;;;;;-3.62;88.15;98970.47;4989592;28;20214;-76
2024/01/13 04:24:50;;;;;;;32.42;17.23;;;;;;;-3.55;88.49;98963.84;4989690;28;20219;-75
2024/01/13 04:27:16;;;;;;;36.22;16.67;;;;;;;-3.43;87.52;98967.56;4995606;28;20205;-75
2024/01/13 04:29:43;;;;;;;30.98;16.55;;;;;;;-3.52;87.59;98962.81;4992643;28;20227;-76
2024/01/13 04:32:09;;;;;;;32.00;18.08;;;;;;;-3.57;87.63;98967.56;5010862;28;20673;-75
2024/01/13 04:34:36;;;;;;;34.45;17.15;;;;;;;-3.54;88.20;98954.13;4978333;28;20217;-75
2024/01/13 04:37:03;;;;;;;32.67;17.98;;;;;;;-3.51;87.42;98949.50;4994237;28;20221;-75
2024/01/13 04:39:32;;;;;;;26.35;16.27;;;;;;;-3.61;88.22;98943.06;4993855;28;20223;-76
2024/01/13 04:42:02;;;;;;;28.98;16.45;;;;;;;-3.45;87.61;98943.00;4994927;28;20294;-75
2024/01/13 04:44:29;;;;;;;27.80;16.13;;;;;;;-3.58;87.40;98953.47;4986973;28;20645;-75
2024/01/13 04:46:58;;;;;;;27.55;16.25;;;;;;;-3.62;87.45;98949.31;5002023;28;20947;-75
2024/01/13 04:49:24;;;;;;;26.60;15.07;;;;;;;-3.34;86.43;98945.84;4994101;28;20242;-75
2024/01/13 04:51:51;;;;;;;27.73;14.85;;;;;;;-3.57;86.36;98946.41;4992247;28;20207;-75
2024/01/13 04:54:17;;;;;;;26.67;15.30;;;;;;;-3.48;86.52;98954.59;4995112;28;20199;-74
2024/01/13 04:56:46;;;;;;;24.83;13.35;;;;;;;-3.39;85.84;98948.78;4995081;28;20690;-75
2024/01/13 04:59:12;;;;;;;25.85;13.55;;;;;;;-3.34;85.63;98945.84;4994850;28;20199;-76
2024/01/13 05:01:39;;;;;;;26.52;15.15;;;;;;;-3.40;86.40;98941.78;4991863;28;20203;-76
2024/01/13 05:04:05;;;;;;;31.90;17.02;;;;;;;-3.36;86.54;98941.59;4994662;28;20516;-76
2024/01/13 05:06:32;;;;;;;33.20;17.15;;;;;;;-3.29;86.04;98946.44;4993911;28;20215;-76
2024/01/13 05:08:59;;;;;;;28.45;14.93;;;;;;;-3.28;86.94;98940.19;5003432;28;20223;-76
2024/01/13 05:11:28;;;;;;;27.75;17.10;;;;;;;-3.07;85.48;98948.59;4994875;28;20203;-77
2024/01/13 05:13:56;;;;;;;31.30;16.42;;;;;;;-3.14;85.80;98926.09;4994100;28;20214;-76
2024/01/13 05:16:23;;;;;;;29.58;16.00;;;;;;;-3.22;86.32;98944.22;4993328;28;20207;-76
2024/01/13 05:18:49;;;;;;;32.60;16.15;;;;;;;-3.10;86.11;98938.19;4992756;28;20290;-77
2024/01/13 05:21:16;;;;;;;31.55;17.38;;;;;;;-3.15;85.92;98930.53;4994482;28;20769;-77
2024/01/13 05:23:42;;;;;;;27.73;16.05;;;;;;;-3.21;86.51;98922.97;4994022;28;20231;-77
2024/01/13 05:26:10;;;;;;;29.42;16.45;;;;;;;-3.47;87.04;98937.78;4995846;28;20274;-76
2024/01/13 05:28:36;;;;;;;30.95;15.63;;;;;;;-3.46;86.99;98931.56;4993079;28;20226;-76
2024/01/13 05:31:05;;;;;;;32.22;17.63;;;;;;;-3.65;88.34;98935.41;4993169;28;20203;-74
2024/01/13 05:33:31;;;;;;;31.75;17.85;;;;;;;-3.66;88.39;98934.56;4987539;28;20641;-75
2024/01/13 05:36:01;;;;;;;30.90;16.40;;;;;;;-3.80;88.74;98943.31;4993469;28;20279;-76
2024/01/13 05:38:30;;;;;;;28.30;16.15;;;;;;;-3.63;88.64;98950.25;4984134;28;20199;-75
2024/01/13 05:40:57;;;;;;;32.08;17.15;;;;;;;-3.70;88.47;98934.84;4993248;28;20219;-76
2024/01/13 05:43:23;;;;;;;30.95;16.00;;;;;;;-3.74;88.62;98939.44;4994796;28;20291;-77
2024/01/13 05:45:50;;;;;;;30.08;15.48;;;;;;;-3.59;88.53;98946.47;4992272;28;20215;-76
2024/01/13 05:48:18;;;;;;;31.13;16.88;;;;;;;-3.65;89.03;98941.56;4993512;28;20214;-75
2024/01/13 05:50:44;;;;;;;31.35;16.30;;;;;;;-3.73;89.10;98935.88;4983862;28;20219;-76
2024/01/13 05:53:11;;;;;;;36.80;17.38;;;;;;;-3.72;88.81;98935.78;4992557;28;20226;-76
2024/01/13 05:55:37;;;;;;;35.85;18.05;;;;;;;-3.67;89.53;98938.16;4992166;28;20209;-76
2024/01/13 05:58:05;;;;;;;27.00;15.20;;;;;;;-3.62;88.79;98933.44;4994638;28;20294;-76
2024/01/13 06:00:31;;;;;;;33.95;15.98;;;;;;;-3.48;88.01;98922.84;4991673;28;20292;-76
2024/01/13 06:02:59;;;;;;;33.92;17.05;;;;;;;-3.34;87.63;98929.13;4993891;28;20213;-76
2024/01/13 06:05:27;;;;;;;35.65;20.45;;;;;;;-3.52;87.90;98920.50;4984200;28;20219;-75
2024/01/13 06:07:54;;;;;;;37.58;19.65;;;;;;;-3.50;88.70;98923.91;4992018;28;20207;-76
2024/01/13 06:10:20;;;;;;;29.70;14.82;;;;;;;-3.38;87.36;98924.00;4992048;28;20227;-76
2024/01/13 06:12:47;;;;;;;33.88;15.45;;;;;;;-3.35;87.45;98922.13;4975882;28;20209;-75
2024/01/13 06:15:13;;;;;;;27.10;17.17;;;;;;;-3.29;86.78;98929.69;4994398;28;20665;-76
2024/01/13 06:17:40;;;;;;;37.92;18.30;;;;;;;-3.50;87.49;98921.25;4992173;28;20562;-76
2024/01/13 06:20:08;;;;;;;39.80;19.80;;;;;;;-3.63;88.69;98913.22;4997211;28;20655;-75
2024/01/13 06:22:36;;;;;;;34.35;17.60;;;;;;;-3.79;88.98;98907.13;4984359;28;20207;-76
2024/01/13 06:25:04;;;;;;;38.75;19.67;;;;;;;-3.63;88.56;98921.16;5008455;28;20207;-76
2024/01/13 06:27:31;;;;;;;37.95;18.27;;;;;;;-3.56;88.80;98908.38;4993018;28;20593;-76
2024/01/13 06:29:57;;;;;;;35.75;18.33;;;;;;;-3.60;88.54;98913.03;4992059;28;20330;-76
2024/01/13 06:32:24;;;;;;;36.92;18.30;;;;;;;-3.52;88.71;98904.63;4994123;28;20207;-75
2024/01/13 06:34:51;;;;;;;36.17;18.65;;;;;;;-3.38;88.59;98905.50;4973826;28;20230;-75
2024/01/13 06:37:17;;;;;;;37.25;18.98;;;;;;;-3.36;88.08;98912.50;4990826;28;20221;-75
2024/01/13 06:39:45;;;;;;;40.97;20.27;;;;;;;-3.34;87.90;98907.97;4992672;28;20207;-76
2024/01/13 06:42:12;;;;;;;38.75;20.55;;;;;;;-3.34;87.75;98915.91;4991286;28;20919;-75
2024/01/13 06:44:38;;;;;;;38.10;19.23;;;;;;;-3.43;88.22;98907.56;4971920;28;20325;-76
2024/01/13 06:47:08;;;;;;;37.30;19.85;;;;;;;-3.48;88.07;98896.41;4991824;28;20615;-76
2024/01/13 06:49:34;;;;;;;31.38;17.42;;;;;;;-3.60;88.08;98907.75;4994128;28;20692;-76
2024/01/13 06:52:01;;;;;;;32.60;17.73;;;;;;;-3.48;88.21;98901.69;4991594;28;20203;-76
2024/01/13 06:54:30;;;;;;;32.78;17.92;;;;;;;-3.39;87.90;98901.16;4990120;28;20203;-76
2024/01/13 06:56:58;;;;;;;33.60;17.05;;;;;;;-3.57;88.35;98902.25;4992967;28;20235;-76
2024/01/13 06:59:25;;;;;;;32.47;17.55;;;;;;;-3.67;88.27;98895.84;4989504;28;20204;-75
2024/01/13 07:01:52;;;;;;;33.20;17.48;;;;;;;-3.60;88.07;98888.38;4989439;28;20257;-75
2024/01/13 07:04:18;;;;;;;36.78;18.30;;;;;;;-3.62;88.07;98885.84;4987945;28;20674;-75
2024/01/13 07:06:45;;;;;;;32.22;15.90;;;;;;;-3.57;88.21;98899.59;4993101;28;20642;-75
2024/01/13 07:09:11;;;;;;;29.10;15.27;;;;;;;-3.46;87.69;98905.09;4991327;28;20237;-75
2024/01/13 07:11:38;;;;;;;27.38;15.02;;;;;;;-3.42;87.21;98896.03;4991416;28;20208;-77
2024/01/13 07:14:08;;;;;;;31.02;17.48;;;;;;;-3.47;87.33;98879.59;4992526;28;20206;-76
2024/01/13 07:16:34;;;;;;;31.33;15.25;;;;;;;-3.47;87.67;98876.94;4991585;28;20213;-76
2024/01/13 07:19:01;;;;;;;28.27;15.75;;;;;;;-3.51;87.75;98872.78;4991600;28;20818;-76
2024/01/13 07:21:29;;;;;;;31.08;16.75;;;;;;;-3.46;87.81;98877.78;4989340;28;20289;-73
2024/01/13 07:23:55;;;;;;;25.83;14.43;;;;;;;-3.39;87.56;98877.34;4975851;28;20203;-73
2024/01/13 07:26:22;;;;;;;31.35;15.70;;;;;;;-3.11;86.53;98867.66;4994964;28;20231;-73
2024/01/13 07:28:48;;;;;;;25.17;13.80;;;;;;;-3.17;86.53;98860.09;4992532;28;20262;-71
2024/01/13 07:31:16;;;;;;;29.33;14.15;;;;;;;-3.46;86.63;98857.47;4993589;28;20219;-73
2024/01/13 07:33:43;;;;;;;26.80;15.38;;;;;;;-3.33;86.99;98851.44;4992091;28;20203;-73
2024/01/13 07:36:09;;;;;;;31.75;16.73;;;;;;;-3.25;87.29;98855.31;4989942;28;20211;-73
2024/01/13 07:38:36;;;;;;;37.25;20.85;;;;;;;-3.20;86.76;98858.50;4990504;28;20298;-73
2024/01/13 07:41:02;;;;;;;36.13;19.73;;;;;;;-3.18;86.67;98866.34;4990491;28;20625;-73
2024/01/13 07:43:29;;;;;;;40.38;20.98;;;;;;;-3.11;86.42;98863.22;4999229;28;20207;-73
2024/01/13 07:45:55;;;;;;;36.63;20.60;;;;;;;-3.10;86.77;98872.03;4988510;28;20217;-73
2024/01/13 07:48:23;;;;;;;36.47;20.83;;;;;;;-3.01;86.67;98874.09;4990873;28;20206;-73
2024/01/13 07:50:50;;;;;;;33.17;18.35;;;;;;;-2.77;85.56;98875.16;4989544;28;20219;-73
2024/01/13 07:53:16;;;;;;;30.25;18.17;;;;;;;-2.98;85.56;98868.59;4989443;28;20215;-73
2024/01/13 07:55:43;;;;;;;29.55;16.38;;;;;;;-2.75;85.24;98865.34;4989774;28;20235;-73
2024/01/13 07:58:09;;;;;;;27.60;15.75;;;;;;;-2.76;85.21;98863.63;4990583;28;20215;-73
2024/01/13 08:00:36;;;;;;;31.10;15.85;;;;;;;-2.74;84.92;98858.25;4981296;28;20617;-72
2024/01/13 08:03:04;;;;;;;27.48;16.20;;;;;;;-2.74;84.67;98867.03;4981827;28;20207;-73
2024/01/13 08:05:32;;;;;;;29.23;16.23;;;;;;;-2.84;85.29;98868.56;4989508;28;20218;-73
2024/01/13 08:07:58;;;;;;;28.00;15.52;;;;;;;-2.73;84.64;98876.69;4990772;28;20214;-73
2024/01/13 08:10:25;;;;;;;28.70;16.58;;;;;;;-2.66;84.79;98877.13;4987026;28;20764;-75
2024/01/13 08:12:51;;;;;;;27.02;15.38;;;;;;;-2.77;85.23;98877.81;4991159;28;20577;-73
2024/01/13 08:15:18;;;;;;;27.05;15.90;;;;;;;-2.47;84.54;98884.72;4990925;28;20204;-74
2024/01/13 08:17:44;;;;;;;24.92;14.85;;;;;;;-2.31;83.65;98877.50;4990141;28;20217;-74
2024/01/13 08:20:13;;;;;;;20.85;12.93;;;;;;;-2.24;83.38;98876.09;4986572;28;20612;-74
2024/01/13 08:22:41;;;;;;;18.35;11.48;;;;;;;-2.15;82.31;98864.91;4989952;28;20294;-74
2024/01/13 08:25:08;;;;;;;8.55;5.80;;;;;;;-2.40;81.04;98864.84;4986853;28;20289;-74
2024/01/13 08:27:35;;;;;;;8.07;5.03;;;;;;;-2.37;81.78;98864.63;4989808;28;20657;-74
2024/01/13 08:30:01;;;;;;;15.05;8.70;;;;;;;-2.68;82.26;98871.09;4990696;28;20218;-74
2024/01/13 08:32:28;;;;;;;17.25;10.30;;;;;;;-2.29;82.33;98864.13;5006763;28;20206;-74
2024/01/13 08:34:55;;;;;;;16.80;9.93;;;;;;;-2.14;81.84;98868.41;4988673;28;20287;-74
2024/01/13 08:37:21;;;;;;;13.20;8.18;;;;;;;-1.98;80.68;98871.75;4991150;28;20206;-74
2024/01/13 08:39:49;;;;;;;12.68;8.13;;;;;;;-2.28;80.58;98869.34;5019593;28;20191;-74
2024/01/13 08:42:16;;;;;;;13.63;8.32;;;;;;;-2.19;80.80;98873.16;4988872;28;20206;-74
2024/01/13 08:44:42;;;;;;;12.15;7.43;;;;;;;-2.15;80.75;98880.81;4991548;28;20617;-74
2024/01/13 08:47:10;;;;;;;11.65;7.72;;;;;;;-2.25;81.05;98878.84;4990106;28;20290;-73
2024/01/13 08:49:36;;;;;;;14.73;7.70;;;;;;;-2.64;81.49;98879.69;4989430;28;20225;-72
2024/01/13 08:52:03;;;;;;;13.25;8.68;;;;;;;-2.40;81.26;98891.34;4987975;28;21005;-71
2024/01/13 08:54:29;;;;;;;8.10;5.82;;;;;;;-2.48;81.26;98888.34;4989296;28;20215;-72
2024/01/13 08:56:57;;;;;;;12.20;7.47;;;;;;;-2.34;81.02;98890.09;4990648;28;20222;-72
2024/01/13 08:59:24;;;;;;;11.57;7.47;;;;;;;-2.19;80.83;98881.97;4990345;28;20258;-72
2024/01/13 09:01:50;;;;;;;11.13;7.93;;;;;;;-2.21;81.07;98888.31;4996830;28;20773;-72
2024/01/13 09:04:18;;;;;;;13.50;8.30;;;;;;;-2.07;79.80;98882.97;4989711;28;20238;-72
2024/01/13 09:06:45;;;;;;;10.98;7.68;;;;;;;-2.26;80.69;98877.16;5006106;28;20215;-72
2024/01/13 09:09:12;;;;;;;11.10;7.22;;;;;;;-2.10;79.97;98878.72;4989364;28;20263;-71
2024/01/13 09:11:41;;;;;;;11.00;7.35;;;;;;;-2.12;80.42;98880.59;4991066;28;20223;-72
2024/01/13 09:14:09;;;;;;;11.27;7.97;;;;;;;-2.06;80.12;98877.56;4992982;28;20199;-72
2024/01/13 09:16:36;;;;;;;10.13;7.00;;;;;;;-1.99;79.66;98874.50;4976507;28;20245;-72
2024/01/13 09:19:02;;;;;;;11.43;7.63;;;;;;;-1.85;79.60;98882.34;4992715;28;20804;-72
2024/01/13 09:21:29;;;;;;;12.27;8.10;;;;;;;-2.09;79.98;98885.72;4992442;28;20285;-72
2024/01/13 09:23:55;;;;;;;12.00;7.60;;;;;;;-2.06;79.29;98890.81;4992001;28;20653;-73
2024/01/13 09:26:22;;;;;;;10.88;8.13;;;;;;;-2.15;79.82;98895.88;4993117;28;20246;-72
2024/01/13 09:28:49;;;;;;;13.82;9.02;;;;;;;-2.14;79.55;98893.13;4986034;28;20252;-72
2024/01/13 09:31:17;;;;;;;13.25;8.45;;;;;;;-2.30;80.08;98897.75;4983220;28;20228;-72
2024/01/13 09:33:44;;;;;;;12.65;8.18;;;;;;;-2.27;80.62;98900.16;4989279;28;20199;-72
2024/01/13 09:36:12;;;;;;;14.30;8.82;;;;;;;-2.41;80.99;98895.78;4987446;28;20300;-72
2024/01/13 09:38:40;;;;;;;11.13;7.28;;;;;;;-2.22;80.43;98889.25;4990906;28;20203;-73
2024/01/13 09:41:06;;;;;;;9.55;7.32;;;;;;;-2.09;79.61;98883.06;4993033;28;20290;-72
2024/01/13 09:43:39;;;;;;;9.68;7.38;;;;;;;-2.00;79.58;98868.34;4992093;28;20254;-72
2024/01/13 09:46:05;;;;;;;9.60;6.82;;;;;;;-2.26;79.87;98869.22;4990893;28;20297;-72
2024/01/13 09:48:33;;;;;;;10.73;7.57;;;;;;;-1.90;79.37;98857.94;4985178;28;20218;-74
2024/01/13 09:51:01;;;;;;;9.15;7.57;;;;;;;-1.92;79.37;98859.84;4991877;28;20211;-74
2024/01/13 09:53:29;;;;;;;10.27;7.38;;;;;;;-2.19;79.88;98867.84;4980664;28;20213;-74
2024/01/13 09:55:58;;;;;;;10.43;7.35;;;;;;;-2.44;80.26;98871.28;4974786;28;20624;-73
2024/01/13 09:58:26;;;;;;;11.55;7.70;;;;;;;-2.42;80.46;98869.38;4990742;28;20207;-74
2024/01/13 10:00:54;;;;;;;10.70;7.75;;;;;;;-2.25;79.54;98861.16;4991663;28;20202;-74
2024/01/13 10:03:21;;;;;;;9.27;7.25;;;;;;;-2.21;79.83;98861.81;4995323;28;20230;-73
2024/01/13 10:05:51;;;;;;;9.75;7.75;;;;;;;-2.34;80.27;98848.53;4991141;28;20195;-74
2024/01/13 10:08:20;;;;;;;11.30;7.20;;;;;;;-2.12;79.73;98840.84;4991158;28;20203;-74
2024/01/13 10:10:47;;;;;;;11.30;7.40;;;;;;;-2.18;79.88;98843.91;4991338;28;20229;-75
2024/01/13 10:13:14;;;;;;;9.98;7.57;;;;;;;-2.41;80.53;98836.63;4987118;28;20196;-74
2024/01/13 10:15:41;;;;;;;10.63;7.55;;;;;;;-2.53;81.33;98832.13;4979912;28;21435;-74
2024/01/13 10:18:08;;;;;;;11.98;8.65;;;;;;;-2.49;81.97;98833.63;4981388;28;20695;-74
2024/01/13 10:20:34;;;;;;;11.60;8.30;;;;;;;-2.57;82.07;98830.63;4981293;28;20211;-75
2024/01/13 10:23:02;;;;;;;11.73;8.23;;;;;;;-2.72;82.33;98828.06;4990374;28;20206;-74
2024/01/13 10:25:29;;;;;;;11.95;8.88;;;;;;;-2.42;81.94;98832.28;4988126;28;20203;-76
2024/01/13 10:27:57;;;;;;;14.20;8.93;;;;;;;-2.23;82.05;98846.00;4992088;28;20206;-76
2024/01/13 10:30:25;;;;;;;13.95;9.55;;;;;;;-2.06;81.55;98837.78;4989538;28;20226;-76
2024/01/13 10:32:52;;;;;;;10.88;8.50;;;;;;;-1.96;81.58;98835.38;4990358;28;20207;-76
2024/01/13 10:35:18;;;;;;;12.88;8.73;;;;;;;-1.96;81.43;98838.00;4989839;28;20222;-76
2024/01/13 10:37:46;;;;;;;14.57;9.98;;;;;;;-2.01;80.72;98834.81;4993891;28;20446;-76
2024/01/13 10:40:15;;;;;;;12.55;8.57;;;;;;;-1.97;81.07;98819.56;4992163;28;20195;-74
2024/01/13 10:42:47;;;;;;;12.70;9.05;;;;;;;-1.93;80.98;98813.06;5020343;28;20207;-76
2024/01/13 10:45:16;;;;;;;12.50;9.55;;;;;;;-2.30;80.52;98812.94;4987512;28;20286;-73
2024/01/13 10:47:48;;;;;;;14.23;10.15;;;;;;;-2.19;80.78;98799.78;5004225;28;20203;-73
2024/01/13 10:50:19;;;;;;;14.13;9.60;;;;;;;-2.36;81.18;98786.84;4978645;28;20207;-76
2024/01/13 10:52:58;;;;;;;12.23;9.23;;;;;;;-2.60;81.97;98786.69;4989473;28;20203;-74
2024/01/13 10:55:26;;;;;;;16.27;10.02;;;;;;;-2.55;82.50;98784.53;4995744;28;20582;-74
2024/01/13 10:57:53;;;;;;;14.88;10.05;;;;;;;-2.49;82.18;98770.03;4994535;28;20759;-74
2024/01/13 11:00:23;;;;;;;15.93;10.23;;;;;;;-2.67;82.40;98771.28;5004700;28;20222;-73
2024/01/13 11:02:53;;;;;;;16.83;10.85;;;;;;;-2.66;83.10;98763.25;4996333;28;20203;-74
2024/01/13 11:05:29;;;;;;;15.60;10.57;;;;;;;-2.66;83.13;98765.88;5012318;28;20214;-74
2024/01/13 11:07:56;;;;;;;15.27;11.15;;;;;;;-2.60;82.92;98772.59;5028366;28;20203;-73
2024/01/13 11:10:32;;;;;;;16.98;12.27;;;;;;;-2.56;82.77;98774.03;4997017;28;21120;-74
2024/01/13 11:13:05;;;;;;;16.65;11.10;;;;;;;-2.72;83.15;98774.22;4997453;28;20203;-74
2024/01/13 11:15:36;;;;;;;15.05;10.95;;;;;;;-2.47;83.12;98761.03;4999004;28;20211;-75
2024/01/13 11:18:05;;;;;;;17.52;11.90;;;;;;;-2.47;82.50;98752.25;4995842;28;20837;-74